Latest Weather Observations for Laverton

IDV60801

Issued at 8:32 am EST Friday 28 July 2017 (issued every 30 minutes, with the page automatically refreshed every 10 minutes)

About weather observations | Map of weather stations | Latest weather observations for VIC | Other Formats
Station Details ID: 087031 Name: LAVERTON RAAF Lat: -37.86 Lon: 144.76 Height: 20.1 m
Data from the previous 72 hours. | See also: Recent months at Laverton
Date/Time
EST
Temp
°C
App
Temp
°C
Dew
Point
°C
Rel
Hum
%
Delta-T
°C
Wind Press
QNH
hPa
Press
MSL
hPa
Rain since
9am
mm
Dir  Spd
km/h
Gust
km/h
Spd
kts
Gust
kts
28/08:30am 7.7 4.7 5.8 88 0.9 NW 11 13 6 7 1018.7 1018.7 3.8
28/08:00am 6.5 2.7 5.8 95 0.3 WNW 15 17 8 9 1018.2 1018.2 3.8
28/07:30am 6.0 2.4 5.0 93 0.4 NW 13 15 7 8 1017.8 1017.8 3.8
28/07:00am 6.0 2.8 5.3 95 0.3 WNW 11 13 6 7 1017.3 1017.3 3.8
28/06:30am 5.6 1.9 4.7 94 0.4 WNW 13 17 7 9 1016.8 1016.8 3.8
28/06:00am 6.4 2.5 5.2 92 0.5 NW 15 17 8 9 1016.4 1016.4 3.8
28/05:30am 6.5 3.1 5.8 95 0.3 NW 13 19 7 10 1016.2 1016.2 3.8
28/05:00am 6.2 2.9 4.8 91 0.6 NW 11 17 6 9 1015.7 1015.7 3.8
28/04:30am 6.8 3.3 5.6 92 0.5 NW 13 15 7 8 1015.2 1015.2 3.8
28/04:00am 7.1 3.1 5.1 87 0.9 WNW 15 17 8 9 1014.9 1014.9 3.8
28/03:30am 8.8 4.3 6.1 83 1.2 WNW 19 24 10 13 1014.8 1014.8 3.8
28/03:00am 9.2 5.2 6.5 83 1.3 WNW 17 22 9 12 1014.6 1014.6 3.8
28/02:30am 9.5 5.5 6.8 83 1.3 WNW 17 20 9 11 1014.4 1014.4 3.8
28/02:00am 9.3 6.3 7.6 89 0.8 WNW 13 17 7 9 1014.0 1014.0 3.8
28/01:30am 9.4 6.4 7.7 89 0.8 WNW 13 19 7 10 1013.6 1013.6 3.8
28/01:00am 9.3 7.3 8.5 95 0.4 NW 9 13 5 7 1013.4 1013.4 3.8
28/12:30am 9.3 7.2 8.4 94 0.4 WNW 9 15 5 8 1013.7 1013.7 3.6
28/12:12am 9.7 6.9 8.5 92 0.6 W 13 20 7 11 1013.7 1013.7 3.6
28/12:00am 9.8 4.9 8.4 91 0.7 WNW 24 32 13 17 1013.6 1013.6 3.6
 
Date/Time
EST
Temp
°C
App
Temp
°C
Dew
Point
°C
Rel
Hum
%
Delta-T
°C
Wind Press
QNH
hPa
Press
MSL
hPa
Rain since
9am
mm
Dir  Spd
km/h
Gust
km/h
Spd
kts
Gust
kts
27/11:43pm 10.5 6.9 8.4 87 1.0 WNW 17 24 9 13 1013.6 1013.6 2.4
27/11:30pm 10.9 6.7 8.1 83 1.4 NNW 20 26 11 14 1012.8 1012.8 2.2
27/11:00pm 10.0 8.1 9.2 95 0.4 NNE 9 19 5 10 1012.7 1012.7 2.2
27/10:30pm 9.9 9.2 8.7 92 0.6 N 2 7 1 4 1013.2 1013.2 2.0
27/10:00pm 10.4 6.9 8.8 90 0.8 NNE 17 24 9 13 1013.2 1013.2 1.6
27/09:30pm 10.6 6.7 8.7 88 0.9 N 19 28 10 15 1013.8 1013.8 1.2
27/09:00pm 11.4 6.7 7.9 79 1.7 N 22 35 12 19 1013.6 1013.6 0.2
27/08:30pm 11.6 5.8 8.1 79 1.7 NNE 28 46 15 25 1013.3 1013.3 0.2
27/08:16pm 11.5 5.4 8.4 81 1.5 NNE 30 52 16 28 1013.4 1013.4 0.2
27/08:00pm 11.3 4.8 8.3 82 1.5 NNE 32 44 17 24 1013.8 1013.8 0.2
27/07:30pm 12.3 6.8 7.6 73 2.3 NNE 26 37 14 20 1014.9 1014.9 0.0
27/07:00pm 12.2 8.0 7.5 73 2.3 N 19 28 10 15 1015.2 1015.2 0.0
27/06:30pm 12.1 7.7 7.4 73 2.3 NNE 20 32 11 17 1014.7 1014.7 0.0
27/06:00pm 11.9 8.0 7.0 72 2.3 NE 17 26 9 14 1014.7 1014.7 0.0
27/05:30pm 11.7 8.9 7.0 73 2.2 NE 11 17 6 9 1015.5 1015.5 0.0
27/05:00pm 12.2 9.1 7.1 71 2.5 NNE 13 17 7 9 1015.8 1015.8 0.0
27/04:30pm 12.4 8.1 6.9 69 2.6 NNE 19 28 10 15 1015.9 1015.9 0.0
27/04:00pm 12.5 8.2 7.0 69 2.6 N 19 30 10 16 1016.0 1016.0 0.0
27/03:30pm 12.4 7.5 6.7 68 2.7 NNE 22 39 12 21 1015.9 1015.9 0.0
27/03:00pm 12.4 6.3 6.5 67 2.8 NNE 28 39 15 21 1015.8 1015.8 0.0
27/02:30pm 12.4 5.9 6.5 67 2.8 NNE 30 46 16 25 1015.7 1015.7 0.0
27/02:18pm 12.4 5.9 6.5 67 2.8 NNE 30 48 16 26 1015.7 1015.7 0.0
27/02:00pm 12.3 6.2 6.4 67 2.8 NNE 28 43 15 23 1016.6 1016.6 0.0
27/01:30pm 12.4 6.7 6.5 67 2.8 NNE 26 43 14 23 1017.6 1017.6 0.0
27/01:00pm 13.0 6.6 6.8 66 3.0 NNE 30 41 16 22 1017.7 1017.7 0.0
27/12:30pm 12.5 6.7 6.3 66 2.9 NNE 26 37 14 20 1019.0 1019.0 0.0
27/12:00pm 13.2 8.0 7.2 67 2.9 NNE 24 35 13 19 1019.7 1019.7 0.0
27/11:30am 12.4 7.5 7.1 70 2.6 NNE 22 33 12 18 1020.3 1020.3 0.0
27/11:00am 11.9 7.6 7.2 73 2.3 NNE 19 32 10 17 1021.2 1021.2 0.0
27/10:30am 10.1 5.6 6.1 76 1.9 NNE 19 26 10 14 1021.5 1021.5 0.0
27/10:00am 10.0 5.9 6.0 76 1.8 N 17 24 9 13 1021.8 1021.8 0.0
27/09:30am 9.1 4.3 5.7 79 1.5 N 20 32 11 17 1022.0 1022.0 0.0
27/09:00am 7.4 3.9 5.4 87 0.9 N 13 19 7 10 1022.0 1022.0 1.0
27/08:30am 6.1 2.3 4.1 87 0.9 N 13 20 7 11 1022.2 1022.2 1.0
27/08:00am 5.4 1.6 4.1 91 0.5 NNE 13 17 7 9 1022.0 1022.0 1.0
27/07:30am 4.4 0.6 3.7 95 0.3 NNE 13 19 7 10 1022.4 1022.4 1.0
27/07:00am 3.1 -0.1 3.0 99 0.0 N 9 13 5 7 1022.5 1022.5 0.8
27/06:30am 1.8 -2.0 1.7 99 0.0 NNW 11 13 6 7 1022.2 1022.2 0.8
27/06:00am 2.2 -0.8 2.1 99 0.0 N 7 11 4 6 1021.6 1021.6 0.8
27/05:30am 1.7 -1.2 1.6 99 0.0 NNW 6 6 3 3 1022.0 1022.0 0.8
27/05:00am 2.1 -0.9 2.0 99 0.0 N 7 9 4 5 1022.1 1022.1 0.8
27/04:30am 2.7 0.0 2.4 98 0.1 NNW 6 9 3 5 1022.2 1022.2 0.8
27/04:00am 3.2 -0.4 2.9 98 0.1 N 11 15 6 8 1022.3 1022.3 0.8
27/03:30am 3.2 0.0 2.9 98 0.1 N 9 13 5 7 1022.5 1022.5 0.8
27/03:00am 4.1 1.0 3.8 98 0.1 N 9 15 5 8 1022.8 1022.8 0.8
27/02:30am 4.0 0.2 3.9 99 0.0 N 13 15 7 8 1023.1 1023.1 0.8
27/02:00am 3.9 1.2 3.5 97 0.2 N 7 9 4 5 1023.4 1023.4 0.8
27/01:30am 4.4 1.0 4.0 97 0.2 NNW 11 13 6 7 1023.5 1023.5 0.8
27/01:00am 4.5 0.7 4.1 97 0.2 NNW 13 15 7 8 1023.6 1023.6 0.8
27/12:30am 4.4 0.6 3.8 96 0.2 NNW 13 15 7 8 1023.9 1023.9 0.8
27/12:00am 4.8 1.1 4.2 96 0.3 NNW 13 15 7 8 1024.0 1024.0 0.8
 
Date/Time
EST
Temp
°C
App
Temp
°C
Dew
Point
°C
Rel
Hum
%
Delta-T
°C
Wind Press
QNH
hPa
Press
MSL
hPa
Rain since
9am
mm
Dir  Spd
km/h
Gust
km/h
Spd
kts
Gust
kts
26/11:30pm 5.7 2.4 4.8 94 0.4 NNW 11 15 6 8 1024.2 1024.2 0.8
26/11:00pm 6.1 2.7 6.0 99 0.0 NNW 13 15 7 8 1024.0 1024.0 0.8
26/10:30pm 5.4 2.2 5.3 99 0.0 NNW 11 13 6 7 1023.9 1023.9 0.8
26/10:00pm 4.4 1.1 4.3 99 0.0 NW 11 13 6 7 1023.8 1023.8 0.8
26/09:30pm 5.0 1.4 4.9 99 0.0 NW 13 15 7 8 1023.7 1023.7 0.8
26/09:00pm 5.0 1.8 4.9 99 0.0 NNW 11 13 6 7 1023.5 1023.5 0.8
26/08:30pm 6.3 3.3 6.2 99 0.0 NNW 11 13 6 7 1023.4 1023.4 0.8
26/08:00pm 7.1 4.7 7.0 99 0.0 SW 9 11 5 6 1023.2 1023.2 0.8
26/07:30pm 7.4 5.3 6.7 95 0.3 SW 7 9 4 5 1023.1 1023.1 0.8
26/07:00pm 8.5 6.5 7.3 92 0.6 SW 7 9 4 5 1022.9 1022.9 0.8
26/06:30pm 9.4 7.7 7.5 88 0.9 SW 6 9 3 5 1022.6 1022.6 0.8
26/06:00pm 9.9 9.3 7.5 85 1.1 CALM 0 0 0 0 1022.2 1022.2 0.8
26/05:30pm 10.5 9.0 7.0 79 1.7 SW 4 6 2 3 1021.9 1021.9 0.8
26/05:00pm 11.5 8.4 7.2 75 2.1 S 13 19 7 10 1021.5 1021.5 0.8
26/04:30pm 12.4 10.8 7.9 74 2.2 WSW 6 9 3 5 1021.1 1021.1 0.8
26/04:00pm 12.3 9.7 7.6 73 2.3 SW 11 17 6 9 1020.9 1020.9 0.6
26/03:30pm 12.4 8.6 7.5 72 2.4 SSW 17 26 9 14 1020.5 1020.5 0.6
26/03:00pm 12.9 7.6 6.7 66 3.0 SSW 24 35 13 19 1020.1 1020.1 0.6
26/02:30pm 12.0 8.4 8.3 78 1.8 SSW 17 24 9 13 1019.8 1019.8 0.6
26/02:26pm 11.9 8.4 8.6 80 1.6 SSW 17 22 9 12 1019.9 1019.9 0.6
26/02:09pm 11.7 6.9 8.7 82 1.5 SSW 24 33 13 18 1019.6 1019.6 0.4
26/02:00pm 13.5 8.5 8.1 70 2.7 SSW 24 33 13 18 1019.4 1019.4 0.0
26/01:30pm 12.3 6.3 7.0 70 2.5 SSW 28 39 15 21 1019.0 1019.0 0.0
26/01:00pm 11.9 5.6 7.6 75 2.1 SSW 30 39 16 21 1019.1 1019.1 0.0
26/12:30pm 14.7 8.4 7.3 61 3.6 WSW 30 44 16 24 1018.6 1018.6 0.0
26/12:00pm 14.0 8.4 7.1 63 3.4 WSW 26 43 14 23 1018.6 1018.6 0.0
26/11:30am 14.3 8.0 7.4 63 3.4 WSW 30 43 16 23 1018.5 1018.5 0.0
26/11:00am 13.4 7.1 7.6 68 2.8 W 30 43 16 23 1018.4 1018.4 0.0
26/10:30am 13.1 7.7 8.0 71 2.5 W 26 43 14 23 1018.2 1018.2 0.0
26/10:00am 12.4 6.3 8.1 75 2.1 W 30 44 16 24 1017.9 1017.9 0.0
26/09:30am 12.4 6.5 7.7 73 2.3 W 28 43 15 23 1017.5 1017.5 0.0
26/09:00am 12.3 8.0 7.8 74 2.2 WNW 20 28 11 15 1017.1 1017.1 1.0
26/08:30am 11.4 7.2 7.3 76 2.0 WNW 19 30 10 16 1016.5 1016.5 1.0
26/08:00am 11.2 6.0 7.1 76 2.0 WNW 24 32 13 17 1016.1 1016.1 1.0
26/07:30am 11.3 6.4 7.0 75 2.1 WNW 22 28 12 15 1015.9 1015.9 1.0
26/07:00am 11.4 6.5 6.9 74 2.1 WNW 22 32 12 17 1015.3 1015.3 1.0
26/06:30am 11.4 6.9 6.9 74 2.1 WNW 20 28 11 15 1014.6 1014.6 1.0
26/06:00am 11.4 6.5 6.7 73 2.2 WNW 22 30 12 16 1014.3 1014.3 1.0
26/05:30am 11.0 6.4 6.7 75 2.0 NW 20 26 11 14 1013.9 1013.9 1.0
26/05:00am 10.6 6.6 6.6 76 1.9 NW 17 22 9 12 1013.7 1013.7 1.0
26/04:30am 10.2 6.1 6.2 76 1.9 NW 17 26 9 14 1013.6 1013.6 1.0
26/04:00am 10.5 6.4 6.1 74 2.0 NW 17 24 9 13 1013.4 1013.4 1.0
26/03:30am 10.7 7.7 5.9 72 2.2 NNW 11 19 6 10 1013.6 1013.6 1.0
26/03:00am 10.4 7.3 5.6 72 2.2 NNW 11 17 6 9 1013.4 1013.4 1.0
26/02:30am 10.4 7.3 5.4 71 2.3 NNW 11 19 6 10 1013.4 1013.4 1.0
26/02:00am 10.4 6.2 5.6 72 2.2 NNW 17 22 9 12 1013.2 1013.2 1.0
26/01:30am 11.2 6.7 5.9 70 2.5 NW 19 26 10 14 1013.1 1013.1 1.0
26/01:00am 11.2 6.5 6.1 71 2.4 NW 20 32 11 17 1013.2 1013.2 1.0
26/12:30am 10.9 6.4 5.9 71 2.3 NW 19 33 10 18 1013.4 1013.4 1.0
26/12:00am 11.4 7.7 6.3 71 2.4 NNW 15 22 8 12 1013.6 1013.6 1.0
 
Date/Time
EST
Temp
°C
App
Temp
°C
Dew
Point
°C
Rel
Hum
%
Delta-T
°C
Wind Press
QNH
hPa
Press
MSL
hPa
Rain since
9am
mm
Dir  Spd
km/h
Gust
km/h
Spd
kts
Gust
kts
25/11:30pm 11.0 8.0 6.2 72 2.2 N 11 15 6 8 1013.4 1013.4 1.0
25/11:00pm 10.8 8.2 6.2 73 2.1 NW 9 15 5 8 1013.2 1013.2 1.0
25/10:30pm 11.1 8.2 6.5 73 2.2 NW 11 17 6 9 1013.1 1013.1 1.0
25/10:00pm 11.3 6.0 6.6 73 2.2 NW 24 35 13 19 1012.8 1012.8 1.0
25/09:30pm 11.7 6.4 6.6 71 2.4 NW 24 33 13 18 1012.8 1012.8 1.0
25/09:00pm 11.7 6.3 6.4 70 2.5 NW 24 33 13 18 1012.6 1012.6 1.0
25/08:30pm 12.4 5.9 6.7 68 2.7 NW 30 46 16 25 1012.1 1012.1 1.0
25/08:00pm 12.2 7.1 7.7 74 2.2 NW 24 35 13 19 1012.2 1012.2 1.0
25/07:30pm 12.8 7.9 8.5 75 2.1 NW 24 33 13 18 1012.4 1012.4 1.0
25/07:00pm 12.4 7.4 8.1 75 2.1 NNW 24 33 13 18 1012.3 1012.3 1.0
25/06:30pm 12.1 9.3 8.4 78 1.8 WNW 13 17 7 9 1012.4 1012.4 1.0
25/06:01pm 11.7 8.0 10.1 90 0.8 WNW 20 30 11 16 1012.4 1012.4 1.0
25/06:00pm 11.6 7.9 10.0 90 0.8 WNW 20 32 11 17 1012.4 1012.4 1.0
25/05:40pm 12.1 5.9 9.3 83 1.4 W 32 46 17 25 1012.5 1012.5 0.6
25/05:30pm 15.0 10.6 7.5 61 3.7 WNW 20 43 11 23 1012.2 1012.2 0.0
25/05:00pm 16.7 12.2 7.1 53 4.8 NNW 20 30 11 16 1011.2 1011.3 0.0
25/04:30pm 17.0 12.8 7.6 54 4.7 NNW 19 28 10 15 1011.5 1011.6 0.0
25/04:00pm 17.3 12.2 7.6 53 4.9 NNW 24 35 13 19 1011.4 1011.5 0.0
25/03:30pm 17.7 12.2 7.7 52 5.1 NNW 26 37 14 20 1011.2 1011.3 0.0
25/03:00pm 17.8 12.3 7.5 51 5.2 N 26 44 14 24 1011.3 1011.4 0.0
25/02:39pm 17.6 11.7 7.6 52 5.1 N 28 46 15 25 1011.4 1011.5 0.0
25/02:30pm 17.7 11.8 7.7 52 5.1 N 28 43 15 23 1011.3 1011.4 0.0
25/02:00pm 17.7 12.6 7.7 52 5.1 N 24 35 13 19 1011.3 1011.4 0.0
25/01:30pm 17.3 11.3 7.1 51 5.1 N 28 46 15 25 1012.0 1012.0 0.0
25/01:28pm 17.3 11.2 6.8 50 5.2 N 28 46 15 25 1012.1 1012.1 0.0
25/01:00pm 17.2 11.2 7.0 51 5.1 N 28 44 15 24 1012.5 1012.5 0.0
25/12:30pm 16.1 9.7 6.8 54 4.6 N 30 43 16 23 1013.4 1013.4 0.0
25/12:17pm 16.1 10.0 6.8 54 4.6 N 28 48 15 26 1013.4 1013.4 0.0
25/12:00pm 16.0 10.9 7.5 57 4.2 N 24 41 13 22 1013.9 1013.9 0.0
25/11:30am 15.0 8.1 6.6 57 4.1 N 32 44 17 24 1014.3 1014.3 0.0
25/11:00am 14.2 8.5 6.6 60 3.7 N 26 39 14 21 1015.1 1015.1 0.0
25/10:58am 14.1 8.0 6.5 60 3.7 N 28 46 15 25 1015.1 1015.1 0.0
25/10:30am 14.0 7.9 6.6 61 3.6 N 28 43 15 23 1015.3 1015.3 0.0
25/10:00am 13.2 7.8 6.3 63 3.3 N 24 41 13 22 1015.6 1015.6 0.0
25/09:30am 13.7 7.5 6.1 60 3.6 NNW 28 41 15 22 1015.8 1015.8 0.0
25/09:00am 13.3 6.7 5.9 61 3.5 NNW 30 43 16 23 1015.6 1015.6 0.0
25/08:50am 13.0 6.7 5.9 62 3.3 N 28 39 15 21 1015.6 1015.6 0.0

Other Formats:

Comma delimited format used in spreadsheet applications
http://www.bom.gov.au/fwo/IDV60801/IDV60801.94865.axf

JavaScript Object Notation format (JSON) in row-major order
http://www.bom.gov.au/fwo/IDV60801/IDV60801.94865.json